createdAt,value
2019-04-30T00:02:09.613Z,20.00
2019-04-30T00:04:42.692Z,20.83
2019-04-30T00:07:15.493Z,20.53
2019-04-30T00:09:49.329Z,19.90
2019-04-30T00:12:17.642Z,20.30
2019-04-30T00:14:47.416Z,19.80
2019-04-30T00:17:19.691Z,21.70
2019-04-30T00:19:50.378Z,19.07
2019-04-30T00:22:31.100Z,20.40
2019-04-30T00:24:51.436Z,18.83
2019-04-30T00:27:25.761Z,19.80
2019-04-30T00:29:52.828Z,19.20
2019-04-30T00:32:22.544Z,17.90
2019-04-30T00:34:52.628Z,19.70
2019-04-30T00:37:22.375Z,20.13
2019-04-30T00:39:53.079Z,19.83
2019-04-30T00:42:24.320Z,19.97
2019-04-30T00:44:55.354Z,20.20
2019-04-30T00:47:25.730Z,20.63
2019-04-30T00:49:58.788Z,20.57
2019-04-30T00:52:29.574Z,19.70
2019-04-30T00:55:00.359Z,21.43
2019-04-30T00:57:30.241Z,20.03
2019-04-30T00:59:59.914Z,24.73
2019-04-30T01:03:00.943Z,21.27
2019-04-30T01:05:32.504Z,22.30
2019-04-30T01:08:02.401Z,21.50
2019-04-30T01:10:32.560Z,23.10
2019-04-30T01:13:08.037Z,21.67
2019-04-30T01:15:34.081Z,20.83
2019-04-30T01:18:03.916Z,21.77
2019-04-30T01:20:34.425Z,22.27
2019-04-30T01:23:08.008Z,23.63
2019-04-30T01:25:35.877Z,24.10
2019-04-30T01:28:05.594Z,24.37
2019-04-30T01:30:35.308Z,23.80
2019-04-30T01:33:05.181Z,23.80
2019-04-30T01:35:35.258Z,23.50
2019-04-30T01:38:11.112Z,21.50
2019-04-30T01:40:38.392Z,23.87
2019-04-30T01:43:09.095Z,23.90
2019-04-30T01:45:39.511Z,23.80
2019-04-30T01:48:12.614Z,25.00
2019-04-30T01:50:42.005Z,26.20
2019-04-30T01:53:13.373Z,26.33
2019-04-30T01:56:12.219Z,25.63
2019-04-30T01:58:54.515Z,24.70
2019-04-30T02:01:26.057Z,24.00
2019-04-30T02:03:56.267Z,24.00
2019-04-30T02:06:26.125Z,23.27
2019-04-30T02:08:55.936Z,23.97
2019-04-30T02:11:25.732Z,23.40
2019-04-30T02:13:55.961Z,25.00
2019-04-30T02:16:26.099Z,25.87
2019-04-30T02:18:55.960Z,25.03
2019-04-30T02:21:25.730Z,24.73
2019-04-30T02:23:56.034Z,27.17
2019-04-30T02:26:25.932Z,27.90
2019-04-30T02:28:55.654Z,27.60
2019-04-30T02:31:25.471Z,25.53
2019-04-30T02:34:01.040Z,28.37
2019-04-30T02:36:46.555Z,28.17
2019-04-30T02:39:16.186Z,27.13
2019-04-30T02:41:47.221Z,26.30
2019-04-30T02:44:19.632Z,28.40
2019-04-30T02:46:51.362Z,24.97
2019-04-30T02:49:22.855Z,26.47
2019-04-30T02:51:53.815Z,26.97
2019-04-30T02:54:31.192Z,27.80
2019-04-30T02:57:25.769Z,27.20
2019-04-30T03:00:06.402Z,27.13
2019-04-30T03:02:36.281Z,27.20
2019-04-30T03:05:06.807Z,26.27
2019-04-30T03:07:36.600Z,26.67
2019-04-30T03:10:09.771Z,26.73
2019-04-30T03:12:40.445Z,26.70
2019-04-30T03:15:10.529Z,27.63
2019-04-30T03:18:01.414Z,27.60
2019-04-30T03:20:59.864Z,27.17
2019-04-30T03:23:30.207Z,27.20
2019-04-30T03:26:00.075Z,25.57
2019-04-30T03:28:30.257Z,25.20
2019-04-30T03:31:04.520Z,26.50
2019-04-30T03:33:33.025Z,26.20
2019-04-30T03:36:02.920Z,25.53
2019-04-30T03:38:32.821Z,28.73
2019-04-30T03:41:21.641Z,26.60
2019-04-30T03:43:51.767Z,26.70
2019-04-30T03:46:21.428Z,25.00
2019-04-30T03:48:51.216Z,26.10
2019-04-30T03:51:21.202Z,27.10
2019-04-30T03:53:50.945Z,27.80
2019-04-30T03:56:22.890Z,25.60
2019-04-30T03:58:52.265Z,26.80
2019-04-30T04:01:40.001Z,26.60
2019-04-30T04:04:21.742Z,25.17
2019-04-30T04:07:00.249Z,29.03
2019-04-30T04:09:40.106Z,26.30
2019-04-30T04:12:22.390Z,27.10
2019-04-30T04:14:52.750Z,28.53
2019-04-30T04:17:23.095Z,28.93
2019-04-30T04:19:52.929Z,27.97
2019-04-30T04:22:23.532Z,25.57
2019-04-30T04:24:53.395Z,27.17
2019-04-30T04:27:23.229Z,29.37
2019-04-30T04:29:53.001Z,28.37
2019-04-30T04:32:24.211Z,28.40
2019-04-30T04:34:54.386Z,26.87
2019-04-30T04:37:24.147Z,26.93
2019-04-30T04:39:53.895Z,25.50
2019-04-30T04:42:23.975Z,25.63
2019-04-30T04:44:53.722Z,25.20
2019-04-30T04:47:23.806Z,24.70
2019-04-30T04:49:54.190Z,25.43
2019-04-30T04:52:24.329Z,25.20
2019-04-30T04:54:54.288Z,23.63
2019-04-30T04:57:24.654Z,25.00
2019-04-30T04:59:54.429Z,23.60
2019-04-30T05:02:32.805Z,27.00
2019-04-30T05:05:03.385Z,23.63
2019-04-30T05:07:33.200Z,25.77
2019-04-30T05:10:02.971Z,26.40
2019-04-30T05:12:32.798Z,25.10
2019-04-30T05:15:02.604Z,25.53
2019-04-30T05:17:32.533Z,27.13
2019-04-30T05:20:02.408Z,25.87
2019-04-30T05:22:32.584Z,24.80
2019-04-30T05:25:03.081Z,26.50
2019-04-30T05:27:33.418Z,26.87
2019-04-30T05:30:03.321Z,26.27
2019-04-30T05:32:33.196Z,25.37
2019-04-30T05:35:03.700Z,27.57
2019-04-30T05:37:33.484Z,28.70
2019-04-30T05:40:03.248Z,29.23
2019-04-30T05:42:33.045Z,27.67
2019-04-30T05:45:03.481Z,27.33
2019-04-30T05:47:33.235Z,28.67
2019-04-30T05:50:02.817Z,26.60
2019-04-30T05:52:32.637Z,25.77
2019-04-30T05:55:02.489Z,27.17
2019-04-30T05:57:32.434Z,24.77
2019-04-30T06:00:02.347Z,26.27
2019-04-30T06:02:34.091Z,26.23
2019-04-30T06:05:03.573Z,24.93
2019-04-30T06:07:33.320Z,23.77
2019-04-30T06:10:11.625Z,24.80
2019-04-30T06:13:00.418Z,27.13
2019-04-30T06:15:34.178Z,26.40
2019-04-30T06:18:11.509Z,25.33
2019-04-30T06:20:38.532Z,25.17
2019-04-30T06:23:09.596Z,26.70
2019-04-30T06:25:55.711Z,25.67
2019-04-30T06:28:12.233Z,25.10
2019-04-30T06:30:42.556Z,27.17
2019-04-30T06:33:12.309Z,26.03
2019-04-30T06:35:42.359Z,29.80
2019-04-30T06:38:12.288Z,28.37
2019-04-30T06:40:42.637Z,28.60
2019-04-30T06:43:13.253Z,28.47
2019-04-30T06:45:44.508Z,31.30
2019-04-30T06:48:19.917Z,31.53
2019-04-30T06:50:50.029Z,31.00
2019-04-30T06:53:19.865Z,33.20
2019-04-30T06:55:50.313Z,33.07
2019-04-30T06:58:20.845Z,30.97
2019-04-30T07:00:50.777Z,34.40
2019-04-30T07:03:20.591Z,31.80
2019-04-30T07:05:50.718Z,32.53
2019-04-30T07:08:55.867Z,29.13
2019-04-30T07:11:35.856Z,29.80
2019-04-30T07:14:05.566Z,30.20
2019-04-30T07:16:35.473Z,29.47
2019-04-30T07:19:05.328Z,29.10
2019-04-30T07:21:36.581Z,27.53
2019-04-30T07:24:09.293Z,26.63
2019-04-30T07:26:39.423Z,25.07
2019-04-30T07:29:09.923Z,25.30
2019-04-30T07:31:40.049Z,26.33
2019-04-30T07:34:10.092Z,23.97
2019-04-30T08:09:39.111Z,18.20
2019-04-30T08:48:53.918Z,11.50
2019-04-30T08:51:23.891Z,11.80
2019-04-30T08:56:22.761Z,11.77
2019-04-30T08:58:54.873Z,15.40
2019-04-30T09:01:24.220Z,18.10
2019-04-30T10:12:19.663Z,27.07
2019-04-30T10:14:49.725Z,28.13
2019-04-30T10:17:38.125Z,27.43
2019-04-30T10:25:10.082Z,25.70
2019-04-30T12:59:19.235Z,23.23
2019-04-30T15:39:10.794Z,23.45
2019-04-30T15:41:40.583Z,21.90
2019-04-30T15:46:39.662Z,23.00
2019-04-30T15:51:50.516Z,22.90
2019-04-30T15:54:21.008Z,22.00
2019-04-30T15:56:51.522Z,23.90
2019-04-30T16:25:49.098Z,23.00
2019-04-30T16:33:19.501Z,23.40
2019-04-30T16:35:51.066Z,25.00
2019-04-30T16:38:21.245Z,25.20
2019-04-30T16:40:51.262Z,23.47
2019-04-30T16:43:21.196Z,24.80
2019-04-30T16:45:50.971Z,24.03
2019-04-30T16:48:20.797Z,23.67
2019-04-30T16:50:51.198Z,26.43
2019-04-30T16:53:21.138Z,24.07
2019-04-30T16:55:51.342Z,24.80
2019-04-30T16:58:21.288Z,23.53
2019-04-30T17:00:51.070Z,22.43
2019-04-30T17:03:28.869Z,23.50
2019-04-30T17:06:04.987Z,22.70
2019-04-30T17:08:42.234Z,23.60
2019-04-30T17:11:19.766Z,23.90
2019-04-30T17:13:55.587Z,25.60
2019-04-30T17:16:25.752Z,23.60
2019-04-30T17:18:55.736Z,24.07
2019-04-30T17:21:25.524Z,24.13
2019-04-30T17:23:55.464Z,23.90
2019-04-30T17:26:25.294Z,24.40
2019-04-30T17:28:55.152Z,25.13
2019-04-30T17:31:25.287Z,24.13
2019-04-30T17:33:55.022Z,25.13
2019-04-30T17:36:24.749Z,22.10
2019-04-30T17:38:54.541Z,24.70
2019-04-30T17:41:24.287Z,24.00
2019-04-30T17:43:53.967Z,23.93
2019-04-30T17:46:23.812Z,25.57
2019-04-30T17:48:53.631Z,24.10
2019-04-30T17:51:23.422Z,24.20
2019-04-30T17:54:10.862Z,24.97
2019-04-30T17:56:40.853Z,23.47
2019-04-30T17:59:10.549Z,23.40
2019-04-30T18:01:41.883Z,23.30
2019-04-30T18:04:11.725Z,23.23
2019-04-30T18:06:41.519Z,25.33
2019-04-30T18:09:11.755Z,23.47
2019-04-30T18:11:41.603Z,23.60
2019-04-30T18:14:11.343Z,27.27
2019-04-30T18:16:41.220Z,23.97
2019-04-30T18:19:30.194Z,22.63
2019-04-30T18:22:09.513Z,24.33
2019-04-30T18:24:59.174Z,24.40
2019-04-30T18:27:42.849Z,24.03
2019-04-30T18:30:06.480Z,22.90
2019-04-30T18:32:36.307Z,24.77
2019-04-30T18:35:06.654Z,24.00
2019-04-30T18:37:36.433Z,23.60
2019-04-30T18:40:06.933Z,24.53
2019-04-30T18:42:36.794Z,24.27
2019-04-30T18:45:06.962Z,23.90
2019-04-30T18:47:36.870Z,22.57
2019-04-30T18:50:09.224Z,24.70
2019-04-30T18:52:40.379Z,24.07
2019-04-30T18:55:10.414Z,22.87
2019-04-30T18:57:40.333Z,22.53
2019-04-30T19:00:10.942Z,24.00
2019-04-30T19:02:41.344Z,25.43
2019-04-30T19:05:15.948Z,23.50
2019-04-30T19:07:52.326Z,24.37
2019-04-30T19:10:53.313Z,23.47
2019-04-30T19:13:41.156Z,22.40
2019-04-30T19:16:49.555Z,23.50
2019-04-30T19:19:25.674Z,24.20
2019-04-30T19:21:55.658Z,23.13
2019-04-30T19:24:25.408Z,25.07
2019-04-30T19:26:55.290Z,24.60
2019-04-30T19:29:25.339Z,24.60
2019-04-30T19:31:55.751Z,25.53
2019-04-30T19:34:28.765Z,24.57
2019-04-30T19:36:58.596Z,24.53
2019-04-30T19:39:29.285Z,25.63
2019-04-30T19:42:01.007Z,23.63
2019-04-30T19:44:32.342Z,24.10
2019-04-30T19:47:02.647Z,23.90
2019-04-30T19:49:32.455Z,25.77
2019-04-30T19:52:08.631Z,24.70
2019-04-30T19:54:33.640Z,23.47
2019-04-30T19:57:03.722Z,23.00
2019-04-30T19:59:33.529Z,24.73
2019-04-30T20:02:05.319Z,24.93
2019-04-30T20:04:36.809Z,24.73
2019-04-30T20:07:08.711Z,24.47
2019-04-30T20:09:38.023Z,24.87
2019-04-30T20:12:07.721Z,26.23
2019-04-30T20:14:39.073Z,26.03
2019-04-30T20:17:09.031Z,24.23
2019-04-30T20:19:38.848Z,23.10
2019-04-30T20:22:09.545Z,22.90
2019-04-30T20:24:39.503Z,22.03
2019-04-30T20:27:10.233Z,25.63
2019-04-30T20:29:40.912Z,24.60
2019-04-30T20:32:10.716Z,24.33
2019-04-30T20:34:42.127Z,22.90
2019-04-30T20:37:11.971Z,23.43
2019-04-30T20:39:52.929Z,24.27
2019-04-30T20:42:22.658Z,23.97
2019-04-30T20:44:52.731Z,25.27
2019-04-30T20:47:22.484Z,23.70
2019-04-30T20:49:52.319Z,23.90
2019-04-30T20:52:22.111Z,23.10
2019-04-30T20:54:51.989Z,24.10
2019-04-30T20:57:21.700Z,24.70
2019-04-30T20:59:51.902Z,22.73
2019-04-30T21:02:21.730Z,23.37
2019-04-30T21:04:51.904Z,23.47
2019-04-30T21:07:22.353Z,24.10
2019-04-30T21:09:52.174Z,24.80
2019-04-30T21:12:21.988Z,23.00
2019-04-30T21:14:51.735Z,20.80
2019-04-30T21:17:21.550Z,24.00
2019-04-30T21:19:51.482Z,23.30
2019-04-30T21:22:22.866Z,22.53
2019-04-30T21:24:52.932Z,23.27
2019-04-30T21:27:22.834Z,21.97
2019-04-30T21:29:52.947Z,22.90
2019-04-30T21:32:48.637Z,21.53
2019-04-30T21:35:40.430Z,22.27
2019-04-30T21:38:10.208Z,22.73
2019-04-30T21:40:40.062Z,22.50
2019-04-30T21:43:10.202Z,22.90
2019-04-30T21:45:40.216Z,22.93
2019-04-30T21:48:09.958Z,25.30
2019-04-30T21:50:39.872Z,21.33
2019-04-30T21:53:10.023Z,21.73
2019-04-30T21:55:40.090Z,23.50
2019-04-30T21:58:09.821Z,23.37
2019-04-30T22:01:01.497Z,24.47
2019-04-30T22:03:31.410Z,24.40
2019-04-30T22:06:01.276Z,25.90
2019-04-30T22:08:31.037Z,24.50
2019-04-30T22:11:00.803Z,23.77
2019-04-30T22:13:31.092Z,24.10
2019-04-30T22:16:00.841Z,24.00
2019-04-30T22:18:30.962Z,24.90
2019-04-30T22:21:01.066Z,24.47
2019-04-30T22:23:30.770Z,25.23
2019-04-30T22:26:00.589Z,25.20
2019-04-30T22:28:30.850Z,24.43
2019-04-30T22:31:00.854Z,26.57
2019-04-30T22:33:30.963Z,26.27
2019-04-30T22:36:10.898Z,25.03
2019-04-30T22:39:02.865Z,25.07
2019-04-30T22:41:34.234Z,26.67
2019-04-30T22:44:04.125Z,27.50
2019-04-30T22:46:33.944Z,26.10
2019-04-30T22:49:03.712Z,26.93
2019-04-30T22:51:33.515Z,25.20
2019-04-30T22:54:03.275Z,25.83
2019-04-30T22:56:33.426Z,28.27
2019-04-30T22:59:03.080Z,27.70
2019-04-30T23:01:58.046Z,26.37
2019-04-30T23:04:38.997Z,27.37
2019-04-30T23:07:08.995Z,27.40
2019-04-30T23:09:38.745Z,28.20
2019-04-30T23:12:08.671Z,29.13
2019-04-30T23:14:38.399Z,28.87
2019-04-30T23:17:08.177Z,29.40
2019-04-30T23:19:38.223Z,28.97
2019-04-30T23:22:07.880Z,28.30
2019-04-30T23:24:37.811Z,31.80
2019-04-30T23:27:07.603Z,28.10
2019-04-30T23:29:37.434Z,28.77
2019-04-30T23:32:07.524Z,29.20
2019-04-30T23:34:37.740Z,31.57
2019-04-30T23:37:08.671Z,30.93
2019-04-30T23:39:38.424Z,29.53
2019-04-30T23:42:08.238Z,28.30
2019-04-30T23:44:38.319Z,29.67
2019-04-30T23:47:08.467Z,28.13
2019-04-30T23:49:38.540Z,29.20
2019-04-30T23:52:08.151Z,30.20
2019-04-30T23:54:37.937Z,31.30
2019-04-30T23:57:07.723Z,30.43
2019-04-30T23:59:37.728Z,31.87
